createdAt,value
2018-06-23T00:01:04.325Z,100985
2018-06-23T00:02:09.210Z,101004
2018-06-23T00:03:14.375Z,100986
2018-06-23T00:04:19.226Z,100985
2018-06-23T00:05:24.670Z,100982
2018-06-23T00:06:30.289Z,100986
2018-06-23T00:07:35.455Z,100964
2018-06-23T00:08:40.615Z,100976
2018-06-23T00:09:46.421Z,100973
2018-06-23T00:10:51.870Z,100976
2018-06-23T00:11:56.750Z,100976
2018-06-23T00:13:02.007Z,100970
2018-06-23T00:14:06.586Z,100973
2018-06-23T00:15:11.752Z,100973
2018-06-23T00:16:17.154Z,100986
2018-06-23T00:17:22.592Z,100970
2018-06-23T00:18:27.867Z,100985
2018-06-23T00:19:33.027Z,100970
2018-06-23T00:20:38.217Z,100970
2018-06-23T00:21:43.785Z,100964
2018-06-23T00:22:48.952Z,100973
2018-06-23T00:23:54.108Z,100982
2018-06-23T00:24:59.664Z,100973
2018-06-23T00:26:04.545Z,100970
2018-06-23T00:27:09.421Z,100970
2018-06-23T00:28:14.860Z,100970
2018-06-23T00:29:19.743Z,100967
2018-06-23T00:30:25.478Z,100985
2018-06-23T00:31:30.644Z,100973
2018-06-23T00:32:35.522Z,100970
2018-06-23T00:33:41.235Z,100973
2018-06-23T00:34:46.410Z,100973
2018-06-23T00:35:51.596Z,100970
2018-06-23T00:36:57.316Z,100973
2018-06-23T00:38:02.475Z,100970
2018-06-23T00:39:06.792Z,100961
2018-06-23T00:40:12.221Z,100973
2018-06-23T00:41:17.391Z,100970
2018-06-23T00:42:21.984Z,100967
2018-06-23T00:43:27.541Z,100967
2018-06-23T00:44:32.703Z,100961
2018-06-23T00:45:38.273Z,100958
2018-06-23T00:46:43.728Z,100964
2018-06-23T00:47:48.901Z,100961
2018-06-23T00:48:54.311Z,100958
2018-06-23T00:49:59.194Z,100953
2018-06-23T00:51:03.493Z,100970
2018-06-23T00:52:09.008Z,100964
2018-06-23T00:53:14.166Z,100964
2018-06-23T00:54:19.644Z,100964
2018-06-23T00:55:25.062Z,100964
2018-06-23T00:56:30.268Z,100964
2018-06-23T00:57:35.253Z,100967
2018-06-23T00:58:40.720Z,100973
2018-06-23T00:59:45.890Z,100970
2018-06-23T01:00:51.403Z,100973
2018-06-23T01:01:56.573Z,100985
2018-06-23T01:03:01.744Z,100982
2018-06-23T01:04:07.448Z,100967
2018-06-23T01:05:12.599Z,100967
2018-06-23T01:06:17.495Z,100970
2018-06-23T01:07:23.300Z,100967
2018-06-23T01:08:28.178Z,100970
2018-06-23T01:09:34.023Z,100967
2018-06-23T01:10:39.482Z,100973
2018-06-23T01:11:44.393Z,100973
2018-06-23T01:12:50.185Z,100970
2018-06-23T01:13:55.079Z,100961
2018-06-23T01:15:00.264Z,100961
2018-06-23T01:16:05.489Z,100967
2018-06-23T01:17:10.113Z,100964
2018-06-23T01:18:14.161Z,100964
2018-06-23T01:19:19.570Z,100967
2018-06-23T01:20:25.024Z,100967
2018-06-23T01:21:29.942Z,100958
2018-06-23T01:22:35.132Z,100973
2018-06-23T01:23:40.581Z,100958
2018-06-23T01:24:46.021Z,100958
2018-06-23T01:25:50.338Z,100961
2018-06-23T01:26:55.781Z,100958
2018-06-23T01:28:01.324Z,100958
2018-06-23T01:29:06.198Z,100961
2018-06-23T01:30:11.669Z,100959
2018-06-23T01:31:16.863Z,100956
2018-06-23T01:32:22.304Z,100953
2018-06-23T01:33:28.050Z,100958
2018-06-23T01:34:32.938Z,100961
2018-06-23T01:35:37.831Z,100967
2018-06-23T01:36:43.258Z,100956
2018-06-23T01:37:48.693Z,100964
2018-06-23T01:38:53.864Z,100967
2018-06-23T01:39:59.559Z,100964
2018-06-23T01:41:04.444Z,100976
2018-06-23T01:42:09.307Z,100953
2018-06-23T01:43:15.014Z,100961
2018-06-23T01:44:20.455Z,100964
2018-06-23T01:45:40.627Z,100970
2018-06-23T01:46:46.072Z,100970
2018-06-23T01:47:51.232Z,100964
2018-06-23T01:48:56.652Z,100967
2018-06-23T01:50:01.537Z,100967
2018-06-23T01:51:06.150Z,100973
2018-06-23T01:52:12.040Z,100964
2018-06-23T01:53:17.212Z,100964
2018-06-23T01:54:22.579Z,100964
2018-06-23T01:55:27.527Z,100958
2018-06-23T01:56:32.690Z,100961
2018-06-23T01:57:37.820Z,100958
2018-06-23T01:58:42.709Z,100961
2018-06-23T01:59:47.590Z,100967
2018-06-23T02:00:53.011Z,100953
2018-06-23T02:01:58.206Z,100967
2018-06-23T02:03:03.402Z,100979
2018-06-23T02:04:09.252Z,100956
2018-06-23T02:05:14.154Z,100956
2018-06-23T02:06:19.621Z,100956
2018-06-23T02:07:25.356Z,100953
2018-06-23T02:08:30.546Z,100953
2018-06-23T02:09:35.392Z,100958
2018-06-23T02:10:40.844Z,100953
2018-06-23T02:11:46.022Z,100961
2018-06-23T02:12:51.424Z,100956
2018-06-23T02:13:56.874Z,100961
2018-06-23T02:15:01.738Z,100956
2018-06-23T02:16:06.726Z,100956
2018-06-23T02:17:11.608Z,100961
2018-06-23T02:18:17.089Z,100958
2018-06-23T02:19:22.509Z,100956
2018-06-23T02:20:27.683Z,100956
2018-06-23T02:21:33.581Z,100944
2018-06-23T02:22:38.733Z,100941
2018-06-23T02:23:44.203Z,100938
2018-06-23T02:24:49.608Z,100947
2018-06-23T02:25:55.067Z,100944
2018-06-23T02:27:00.522Z,100941
2018-06-23T02:28:05.637Z,100938
2018-06-23T02:29:10.529Z,100938
2018-06-23T02:30:15.402Z,100935
2018-06-23T02:31:19.965Z,100938
2018-06-23T02:32:25.423Z,100944
2018-06-23T02:33:31.421Z,100927
2018-06-23T02:34:36.577Z,100941
2018-06-23T02:35:41.186Z,100944
2018-06-23T02:36:46.962Z,100932
2018-06-23T02:37:51.861Z,100927
2018-06-23T02:38:57.300Z,100932
2018-06-23T02:40:02.304Z,100932
2018-06-23T02:41:07.469Z,100935
2018-06-23T02:42:12.635Z,100941
2018-06-23T02:43:18.325Z,100938
2018-06-23T02:44:23.493Z,100927
2018-06-23T02:45:28.735Z,100932
2018-06-23T02:46:34.212Z,100938
2018-06-23T02:47:39.367Z,100927
2018-06-23T02:48:44.503Z,100932
2018-06-23T02:49:49.950Z,100941
2018-06-23T02:50:55.114Z,100929
2018-06-23T02:52:00.914Z,100941
2018-06-23T02:53:05.561Z,100938
2018-06-23T02:54:11.007Z,100935
2018-06-23T02:55:16.410Z,100932
2018-06-23T02:56:21.579Z,100935
2018-06-23T02:57:27.244Z,100932
2018-06-23T02:58:32.406Z,100947
2018-06-23T02:59:37.563Z,100941
2018-06-23T03:00:42.801Z,100935
2018-06-23T03:01:46.868Z,100938
2018-06-23T03:02:52.315Z,100958
2018-06-23T03:03:57.539Z,100944
2018-06-23T03:05:02.416Z,100944
2018-06-23T03:06:07.303Z,100941
2018-06-23T03:07:12.484Z,100950
2018-06-23T03:08:17.364Z,100941
2018-06-23T03:09:22.530Z,100953
2018-06-23T03:10:27.860Z,100950
2018-06-23T03:11:33.056Z,100950
2018-06-23T03:12:38.562Z,100961
2018-06-23T03:13:43.772Z,100950
2018-06-23T03:14:48.923Z,100947
2018-06-23T03:15:54.721Z,100952
2018-06-23T03:16:59.920Z,100958
2018-06-23T03:18:05.363Z,100947
2018-06-23T03:19:10.321Z,100952
2018-06-23T03:20:15.475Z,100952
2018-06-23T03:21:20.083Z,100955
2018-06-23T03:22:25.379Z,100941
2018-06-23T03:23:30.272Z,100950
2018-06-23T03:24:35.411Z,100944
2018-06-23T03:25:40.869Z,100952
2018-06-23T03:26:46.068Z,100949
2018-06-23T03:27:51.888Z,100958
2018-06-23T03:28:57.377Z,100955
2018-06-23T03:30:02.263Z,100961
2018-06-23T03:31:06.943Z,100949
2018-06-23T03:32:12.145Z,100947
2018-06-23T03:33:17.321Z,100949
2018-06-23T03:34:22.872Z,100949
2018-06-23T03:35:28.320Z,100949
2018-06-23T03:36:34.259Z,100958
2018-06-23T03:37:39.439Z,100952
2018-06-23T03:38:44.891Z,100949
2018-06-23T03:39:50.450Z,100941
2018-06-23T03:40:55.619Z,100944
2018-06-23T03:42:00.515Z,100938
2018-06-23T03:43:05.665Z,100941
2018-06-23T03:44:10.255Z,100932
2018-06-23T03:45:15.473Z,100932
2018-06-23T03:46:21.042Z,100946
2018-06-23T03:47:26.197Z,100935
2018-06-23T03:48:32.291Z,100941
2018-06-23T03:49:37.457Z,100929
2018-06-23T03:50:42.895Z,100929
2018-06-23T03:51:48.784Z,100932
2018-06-23T03:52:53.951Z,100932
2018-06-23T03:53:59.126Z,100932
2018-06-23T03:55:05.093Z,100935
2018-06-23T03:56:10.261Z,100944
2018-06-23T03:57:15.702Z,100946
2018-06-23T03:58:21.243Z,100935
2018-06-23T03:59:26.685Z,100935
2018-06-23T04:00:32.001Z,100941
2018-06-23T04:01:37.441Z,100944
2018-06-23T04:02:42.880Z,100935
2018-06-23T04:03:48.330Z,100946
2018-06-23T04:04:53.492Z,100941
2018-06-23T04:05:58.932Z,100946
2018-06-23T04:07:04.728Z,100941
2018-06-23T04:08:10.213Z,100955
2018-06-23T04:09:14.812Z,100958
2018-06-23T04:10:19.809Z,100958
2018-06-23T04:11:24.827Z,100949
2018-06-23T04:12:30.892Z,100958
2018-06-23T04:13:36.068Z,100952
2018-06-23T04:14:41.508Z,100949
2018-06-23T04:15:47.067Z,100958
2018-06-23T04:16:52.479Z,100958
2018-06-23T04:17:57.230Z,100961
2018-06-23T04:19:02.108Z,100955
2018-06-23T04:20:07.318Z,100952
2018-06-23T04:21:11.936Z,100955
2018-06-23T04:22:17.358Z,100961
2018-06-23T04:23:22.817Z,100952
2018-06-23T04:24:28.966Z,100946
2018-06-23T04:25:34.123Z,100949
2018-06-23T04:26:39.013Z,100941
2018-06-23T04:27:44.462Z,100952
2018-06-23T04:28:49.360Z,100938
2018-06-23T04:29:54.541Z,100946
2018-06-23T04:30:59.683Z,100955
2018-06-23T04:32:05.124Z,100946
2018-06-23T04:33:10.572Z,100946
2018-06-23T04:34:16.019Z,100943
2018-06-23T04:35:21.478Z,100943
2018-06-23T04:36:27.203Z,100943
2018-06-23T04:37:32.376Z,100943
2018-06-23T04:38:37.566Z,100946
2018-06-23T04:39:42.704Z,100949
2018-06-23T04:40:47.308Z,100949
2018-06-23T04:41:52.473Z,100952
2018-06-23T04:42:57.929Z,100949
2018-06-23T04:44:02.537Z,100946
2018-06-23T04:45:07.155Z,100946
2018-06-23T04:46:13.004Z,100949
2018-06-23T04:47:18.450Z,100952
2018-06-23T04:48:23.919Z,100938
2018-06-23T04:49:44.263Z,100943
2018-06-23T04:50:49.707Z,100946
2018-06-23T04:51:55.136Z,100961
2018-06-23T04:53:00.297Z,100958
2018-06-23T04:54:05.200Z,100949
2018-06-23T04:55:10.472Z,100946
2018-06-23T04:56:15.908Z,100952
2018-06-23T04:57:21.067Z,100949
2018-06-23T04:58:40.995Z,100943
2018-06-23T04:59:46.164Z,100943
2018-06-23T05:00:50.975Z,100941
2018-06-23T05:01:55.849Z,100940
2018-06-23T05:03:01.450Z,100946
2018-06-23T05:04:06.118Z,100935
2018-06-23T05:05:11.007Z,100940
2018-06-23T05:06:15.866Z,100940
2018-06-23T05:07:21.662Z,100946
2018-06-23T05:08:26.536Z,100935
2018-06-23T05:09:32.210Z,100940
2018-06-23T05:10:37.116Z,100938
2018-06-23T05:11:41.742Z,100940
2018-06-23T05:12:47.433Z,100943
2018-06-23T05:13:52.876Z,100940
2018-06-23T05:14:58.059Z,100946
2018-06-23T05:16:02.996Z,100943
2018-06-23T05:17:08.440Z,100938
2018-06-23T05:18:13.331Z,100943
2018-06-23T05:19:19.031Z,100935
2018-06-23T05:20:24.178Z,100949
2018-06-23T05:21:29.142Z,100952
2018-06-23T05:22:34.294Z,100935
2018-06-23T05:23:39.738Z,100943
2018-06-23T05:24:45.680Z,100940
2018-06-23T05:25:50.842Z,100949
2018-06-23T05:26:55.785Z,100929
2018-06-23T05:28:01.355Z,100929
2018-06-23T05:29:05.978Z,100935
2018-06-23T05:30:11.432Z,100923
2018-06-23T05:31:16.844Z,100929
2018-06-23T05:32:22.284Z,100932
2018-06-23T05:33:27.863Z,100938
2018-06-23T05:34:33.023Z,100943
2018-06-23T05:35:38.189Z,100938
2018-06-23T05:36:44.003Z,100938
2018-06-23T05:37:49.288Z,100949
2018-06-23T05:38:55.022Z,100940
2018-06-23T05:40:00.722Z,100932
2018-06-23T05:41:05.881Z,100932
2018-06-23T05:42:10.766Z,100935
2018-06-23T05:43:16.265Z,100920
2018-06-23T05:44:21.430Z,100932
2018-06-23T05:45:26.690Z,100926
2018-06-23T05:46:31.863Z,100920
2018-06-23T05:47:37.309Z,100929
2018-06-23T05:48:43.279Z,100926
2018-06-23T05:49:48.444Z,100920
2018-06-23T05:50:53.887Z,100932
2018-06-23T05:51:59.443Z,100923
2018-06-23T05:53:04.885Z,100923
2018-06-23T05:54:10.325Z,100932
2018-06-23T05:55:16.132Z,100938
2018-06-23T05:56:21.415Z,100914
2018-06-23T05:57:27.309Z,100923
2018-06-23T05:58:32.462Z,100929
2018-06-23T05:59:37.909Z,100923
2018-06-23T06:00:42.899Z,100932
2018-06-23T06:01:47.927Z,100926
2018-06-23T06:02:53.372Z,100932
2018-06-23T06:03:58.779Z,100929
2018-06-23T06:05:04.275Z,100935
2018-06-23T06:06:08.874Z,100929
2018-06-23T06:07:14.396Z,100929
2018-06-23T06:08:19.832Z,100929
2018-06-23T06:09:24.734Z,100929
2018-06-23T06:10:30.402Z,100917
2018-06-23T06:11:35.843Z,100929
2018-06-23T06:12:40.988Z,100938
2018-06-23T06:13:46.432Z,100938
2018-06-23T06:14:51.871Z,100935
2018-06-23T06:15:57.384Z,100932
2018-06-23T06:17:02.545Z,100935
2018-06-23T06:18:07.732Z,100932
2018-06-23T06:19:13.300Z,100932
2018-06-23T06:20:18.466Z,100938
2018-06-23T06:21:23.658Z,100929
2018-06-23T06:22:29.471Z,100929
2018-06-23T06:23:34.650Z,100929
2018-06-23T06:24:40.342Z,100929
2018-06-23T06:25:45.804Z,100938
2018-06-23T06:26:51.252Z,100940
2018-06-23T06:27:56.946Z,100940
2018-06-23T06:29:01.842Z,100929
2018-06-23T06:30:06.725Z,100938
2018-06-23T06:31:12.244Z,100940
2018-06-23T06:32:17.412Z,100935
2018-06-23T06:33:22.595Z,100932
2018-06-23T06:34:28.088Z,100946
2018-06-23T06:35:33.300Z,100940
2018-06-23T06:36:38.964Z,100938
2018-06-23T06:37:43.868Z,100935
2018-06-23T06:38:49.015Z,100929
2018-06-23T06:39:54.878Z,100926
2018-06-23T06:41:00.320Z,100929
2018-06-23T06:42:05.205Z,100923
2018-06-23T06:43:10.602Z,100938
2018-06-23T06:44:16.049Z,100929
2018-06-23T06:45:20.931Z,100929
2018-06-23T06:46:41.381Z,100932
2018-06-23T06:47:46.564Z,100935
2018-06-23T06:48:52.410Z,100935
2018-06-23T06:49:57.117Z,100935
2018-06-23T06:51:02.291Z,100938
2018-06-23T06:52:06.860Z,100935
2018-06-23T06:53:12.037Z,100932
2018-06-23T06:54:16.937Z,100943
2018-06-23T06:55:22.632Z,100938
2018-06-23T06:56:27.250Z,100940
2018-06-23T06:57:33.129Z,100932
2018-06-23T06:58:38.040Z,100935
2018-06-23T06:59:43.213Z,100935
2018-06-23T07:00:48.635Z,100926
2018-06-23T07:01:54.091Z,100923
2018-06-23T07:02:59.254Z,100935
2018-06-23T07:04:04.961Z,100920
2018-06-23T07:05:09.825Z,100923
2018-06-23T07:06:14.746Z,100938
2018-06-23T07:07:19.867Z,100929
2018-06-23T07:08:25.316Z,100952
2018-06-23T07:09:30.729Z,100929
2018-06-23T07:10:36.173Z,100935
2018-06-23T07:11:41.556Z,100929
2018-06-23T07:12:47.504Z,100932
2018-06-23T07:13:52.673Z,100940
2018-06-23T07:14:58.135Z,100935
2018-06-23T07:16:03.711Z,100929
2018-06-23T07:17:08.331Z,100929
2018-06-23T07:18:13.203Z,100932
2018-06-23T07:19:18.779Z,100929
2018-06-23T07:20:24.010Z,100935
2018-06-23T07:21:29.953Z,100935
2018-06-23T07:22:35.124Z,100932
2018-06-23T07:23:40.454Z,100932
2018-06-23T07:24:46.258Z,100935
2018-06-23T07:25:51.709Z,100932
2018-06-23T07:26:56.767Z,100935
2018-06-23T07:28:02.148Z,100935
2018-06-23T07:29:06.756Z,100935
2018-06-23T07:30:11.924Z,100935
2018-06-23T07:31:17.079Z,100940
2018-06-23T07:32:22.512Z,100940
2018-06-23T07:33:27.754Z,100940
2018-06-23T07:34:33.604Z,100937
2018-06-23T07:35:39.417Z,100952
2018-06-23T07:36:45.223Z,100940
2018-06-23T07:37:50.375Z,100946
2018-06-23T07:38:54.976Z,100938
2018-06-23T07:40:00.815Z,100940
2018-06-23T07:41:05.410Z,100938
2018-06-23T07:42:10.862Z,100935
2018-06-23T07:43:15.991Z,100940
2018-06-23T07:44:20.593Z,100946
2018-06-23T07:45:25.873Z,100946
2018-06-23T07:46:30.869Z,100938
2018-06-23T07:47:35.749Z,100929
2018-06-23T07:48:41.365Z,100940
2018-06-23T07:49:46.813Z,100938
2018-06-23T07:50:51.699Z,100940
2018-06-23T07:51:56.835Z,100940
2018-06-23T07:53:02.297Z,100940
2018-06-23T07:54:07.207Z,100946
2018-06-23T07:55:12.724Z,100946
2018-06-23T07:56:18.394Z,100946
2018-06-23T07:57:23.561Z,100949
2018-06-23T07:58:44.062Z,100955
2018-06-23T07:59:49.236Z,100935
2018-06-23T08:00:54.787Z,100949
2018-06-23T08:02:00.236Z,100943
2018-06-23T08:03:04.833Z,100937
2018-06-23T08:04:09.496Z,100946
2018-06-23T08:05:14.387Z,100938
2018-06-23T08:06:19.843Z,100938
2018-06-23T08:07:25.358Z,100943
2018-06-23T08:08:30.517Z,100952
2018-06-23T08:09:36.368Z,100935
2018-06-23T08:10:41.810Z,100940
2018-06-23T08:11:47.114Z,100949
2018-06-23T08:12:52.622Z,100943
2018-06-23T08:13:57.515Z,100946
2018-06-23T08:15:02.671Z,100943
2018-06-23T08:16:07.249Z,100946
2018-06-23T08:17:11.848Z,100940
2018-06-23T08:18:17.015Z,100952
2018-06-23T08:19:21.631Z,100943
2018-06-23T08:20:26.792Z,100941
2018-06-23T08:21:32.495Z,100949
2018-06-23T08:22:37.668Z,100943
2018-06-23T08:23:43.117Z,100946
2018-06-23T08:24:48.557Z,100943
2018-06-23T08:25:53.767Z,100946
2018-06-23T08:26:58.651Z,100952
2018-06-23T08:28:03.802Z,100935
2018-06-23T08:29:08.967Z,100944
2018-06-23T08:30:13.844Z,100943
2018-06-23T08:31:19.261Z,100943
2018-06-23T08:32:24.714Z,100938
2018-06-23T08:33:30.610Z,100943
2018-06-23T08:34:35.519Z,100949
2018-06-23T08:35:40.961Z,100935
2018-06-23T08:36:46.938Z,100949
2018-06-23T08:37:52.710Z,100946
2018-06-23T08:38:58.080Z,100949
2018-06-23T08:40:03.193Z,100943
2018-06-23T08:41:08.874Z,100952
2018-06-23T08:42:14.034Z,100932
2018-06-23T08:43:19.847Z,100943
2018-06-23T08:44:25.010Z,100952
2018-06-23T08:45:30.190Z,100946
2018-06-23T08:46:34.792Z,100940
2018-06-23T08:47:39.952Z,100940
2018-06-23T08:48:45.191Z,100940
2018-06-23T08:49:50.080Z,100943
2018-06-23T08:50:54.694Z,100938
2018-06-23T08:52:00.110Z,100935
2018-06-23T08:53:05.551Z,100935
2018-06-23T08:54:10.161Z,100929
2018-06-23T08:55:15.872Z,100935
2018-06-23T08:56:21.019Z,100932
2018-06-23T08:57:26.525Z,100920
2018-06-23T08:58:32.005Z,100923
2018-06-23T08:59:37.187Z,100917
2018-06-23T09:00:42.418Z,100926
2018-06-23T09:01:48.009Z,100932
2018-06-23T09:02:54.274Z,100935
2018-06-23T09:03:59.116Z,100935
2018-06-23T09:05:04.304Z,100932
2018-06-23T09:06:09.756Z,100935
2018-06-23T09:07:15.177Z,100929
2018-06-23T09:08:20.357Z,100935
2018-06-23T09:09:40.726Z,100929
2018-06-23T09:10:45.628Z,100929
2018-06-23T09:11:50.504Z,100917
2018-06-23T09:12:55.723Z,100923
2018-06-23T09:14:00.912Z,100920
2018-06-23T09:15:06.230Z,100920
2018-06-23T09:16:11.785Z,100909
2018-06-23T09:17:16.933Z,100912
2018-06-23T09:18:22.098Z,100909
2018-06-23T09:19:27.517Z,100900
2018-06-23T09:20:32.704Z,100906
2018-06-23T09:21:38.112Z,100894
2018-06-23T09:22:42.996Z,100906
2018-06-23T09:23:48.153Z,100909
2018-06-23T09:24:53.993Z,100917
2018-06-23T09:25:59.641Z,100909
2018-06-23T09:27:04.485Z,100912
2018-06-23T09:28:09.703Z,100926
2018-06-23T09:29:15.147Z,100917
2018-06-23T09:30:20.031Z,100929
2018-06-23T09:31:25.564Z,100915
2018-06-23T09:32:31.037Z,100912
2018-06-23T09:33:36.894Z,100920
2018-06-23T09:34:41.778Z,100917
2018-06-23T09:35:47.215Z,100920
2018-06-23T09:36:52.396Z,100926
2018-06-23T09:37:57.562Z,100926
2018-06-23T09:39:02.447Z,100926
2018-06-23T09:40:08.112Z,100923
2018-06-23T09:41:13.267Z,100920
2018-06-23T09:42:18.441Z,100923
2018-06-23T09:43:24.274Z,100915
2018-06-23T09:44:29.143Z,100918
2018-06-23T09:45:34.685Z,100912
2018-06-23T09:46:39.576Z,100903
2018-06-23T09:47:44.773Z,100906
2018-06-23T09:48:50.198Z,100900
2018-06-23T09:49:55.076Z,100891
2018-06-23T09:51:00.550Z,100903
2018-06-23T09:52:06.012Z,100897
2018-06-23T09:53:11.187Z,100903
2018-06-23T09:54:16.629Z,100897
2018-06-23T09:55:21.471Z,100894
2018-06-23T09:56:26.358Z,100886
2018-06-23T09:57:31.591Z,100889
2018-06-23T09:58:36.460Z,100906
2018-06-23T09:59:41.333Z,100900
2018-06-23T10:00:46.292Z,100897
2018-06-23T10:01:51.738Z,100903
2018-06-23T10:02:56.628Z,100897
2018-06-23T10:04:01.483Z,100906
2018-06-23T10:05:06.641Z,100906
2018-06-23T10:06:11.250Z,100903
2018-06-23T10:07:17.441Z,100900
2018-06-23T10:08:23.377Z,100906
2018-06-23T10:09:28.841Z,100906
2018-06-23T10:10:33.746Z,100897
2018-06-23T10:11:38.941Z,100909
2018-06-23T10:12:44.359Z,100909
2018-06-23T10:13:49.807Z,100903
2018-06-23T10:14:54.699Z,100909
2018-06-23T10:16:00.247Z,100915
2018-06-23T10:17:05.729Z,100912
2018-06-23T10:18:11.156Z,100912
2018-06-23T10:19:16.892Z,100906
2018-06-23T10:20:22.027Z,100897
2018-06-23T10:21:27.773Z,100906
2018-06-23T10:22:33.052Z,100897
2018-06-23T10:23:38.215Z,100900
2018-06-23T10:24:43.774Z,100906
2018-06-23T10:25:48.958Z,100909
2018-06-23T10:26:54.400Z,100894
2018-06-23T10:27:59.643Z,100900
2018-06-23T10:29:05.081Z,100897
2018-06-23T10:30:09.665Z,100906
2018-06-23T10:31:14.980Z,100894
2018-06-23T10:32:20.425Z,100909
2018-06-23T10:33:25.854Z,100906
2018-06-23T10:34:31.028Z,100906
2018-06-23T10:35:36.198Z,100903
2018-06-23T10:36:42.092Z,100906
2018-06-23T10:37:47.266Z,100897
2018-06-23T10:38:52.441Z,100909
2018-06-23T10:39:58.413Z,100909
2018-06-23T10:41:03.644Z,100903
2018-06-23T10:42:08.529Z,100906
2018-06-23T10:43:14.391Z,100903
2018-06-23T10:44:19.287Z,100909
2018-06-23T10:45:24.446Z,100903
2018-06-23T10:46:44.505Z,100912
2018-06-23T10:47:49.980Z,100915
2018-06-23T10:48:55.206Z,100912
2018-06-23T10:50:00.095Z,100906
2018-06-23T10:51:04.972Z,100906
2018-06-23T10:52:10.772Z,100903
2018-06-23T10:53:15.936Z,100912
2018-06-23T10:54:21.382Z,100906
2018-06-23T10:55:27.090Z,100906
2018-06-23T10:56:32.550Z,100915
2018-06-23T10:57:38.495Z,100906
2018-06-23T10:58:43.694Z,100909
2018-06-23T10:59:49.161Z,100903
2018-06-23T11:00:54.576Z,100891
2018-06-23T11:01:59.740Z,100900
2018-06-23T11:03:04.902Z,100903
2018-06-23T11:04:10.030Z,100909
2018-06-23T11:05:14.927Z,100906
2018-06-23T11:06:20.086Z,100915
2018-06-23T11:07:26.077Z,100909
2018-06-23T11:08:31.500Z,100909
2018-06-23T11:09:37.121Z,100903
2018-06-23T11:10:42.012Z,100909
2018-06-23T11:11:47.478Z,100915
2018-06-23T11:12:52.620Z,100906
2018-06-23T11:13:57.502Z,100909
2018-06-23T11:15:02.673Z,100906
2018-06-23T11:16:07.527Z,100903
2018-06-23T11:17:11.553Z,100906
2018-06-23T11:18:16.700Z,100903
2018-06-23T11:19:22.543Z,100915
2018-06-23T11:20:27.714Z,100906
2018-06-23T11:21:33.278Z,100906
2018-06-23T11:22:38.734Z,100906
2018-06-23T11:23:44.192Z,100903
2018-06-23T11:24:49.621Z,100900
2018-06-23T11:25:54.493Z,100909
2018-06-23T11:26:59.942Z,100897
2018-06-23T11:28:05.352Z,100894
2018-06-23T11:29:10.522Z,100900
2018-06-23T11:30:15.963Z,100909
2018-06-23T11:31:21.788Z,100906
2018-06-23T11:32:26.669Z,100909
2018-06-23T11:33:32.222Z,100918
2018-06-23T11:34:37.662Z,100909
2018-06-23T11:35:42.819Z,100903
2018-06-23T11:36:48.622Z,100906
2018-06-23T11:37:53.804Z,100900
2018-06-23T11:38:59.261Z,100903
2018-06-23T11:40:04.246Z,100912
2018-06-23T11:41:09.095Z,100897
2018-06-23T11:42:14.275Z,100906
2018-06-23T11:43:20.120Z,100903
2018-06-23T11:44:24.699Z,100921
2018-06-23T11:45:29.725Z,100906
2018-06-23T11:46:35.256Z,100906
2018-06-23T11:47:40.958Z,100912
2018-06-23T11:48:46.400Z,100912
2018-06-23T11:49:51.857Z,100903
2018-06-23T11:50:56.748Z,100909
2018-06-23T11:52:02.288Z,100915
2018-06-23T11:53:07.660Z,100909
2018-06-23T11:54:13.125Z,100915
2018-06-23T11:55:18.001Z,100906
2018-06-23T11:56:23.154Z,100903
2018-06-23T11:57:28.862Z,100894
2018-06-23T11:58:34.029Z,100903
2018-06-23T11:59:39.497Z,100906
2018-06-23T12:00:45.185Z,100900
2018-06-23T12:01:50.165Z,100900
2018-06-23T12:02:55.438Z,100900
2018-06-23T12:04:00.878Z,100903
2018-06-23T12:05:06.326Z,100909
2018-06-23T12:06:11.770Z,100921
2018-06-23T12:07:17.203Z,100912
2018-06-23T12:08:22.659Z,100912
2018-06-23T12:09:28.494Z,100909
2018-06-23T12:10:33.674Z,100906
2018-06-23T12:11:39.170Z,100909
2018-06-23T12:12:44.589Z,100909
2018-06-23T12:13:49.808Z,100906
2018-06-23T12:14:55.274Z,100906
2018-06-23T12:16:00.417Z,100906
2018-06-23T12:17:04.728Z,100900
2018-06-23T12:18:10.176Z,100903
2018-06-23T12:19:15.787Z,100900
2018-06-23T12:20:21.240Z,100895
2018-06-23T12:21:26.863Z,100892
2018-06-23T12:22:32.031Z,100897
2018-06-23T12:23:37.482Z,100897
2018-06-23T12:24:43.038Z,100897
2018-06-23T12:25:48.206Z,100906
2018-06-23T12:26:53.642Z,100900
2018-06-23T12:27:59.063Z,100895
2018-06-23T12:29:04.520Z,100889
2018-06-23T12:30:09.398Z,100889
2018-06-23T12:31:14.342Z,100883
2018-06-23T12:32:19.823Z,100883
2018-06-23T12:34:44.921Z,100883
2018-06-23T12:35:50.096Z,100880
2018-06-23T12:36:55.589Z,100880
2018-06-23T12:38:01.063Z,100889
2018-06-23T12:39:05.385Z,100886
2018-06-23T12:40:10.618Z,100895
2018-06-23T12:41:16.065Z,100892
2018-06-23T12:42:21.519Z,100886
2018-06-23T12:43:27.225Z,100874
2018-06-23T12:44:32.415Z,100880
2018-06-23T12:45:37.628Z,100880
2018-06-23T12:46:42.507Z,100880
2018-06-23T12:47:47.667Z,100889
2018-06-23T12:48:53.453Z,100886
2018-06-23T12:49:58.628Z,100886
2018-06-23T12:51:04.107Z,100880
2018-06-23T12:52:09.400Z,100886
2018-06-23T12:53:14.571Z,100883
2018-06-23T12:54:20.013Z,100880
2018-06-23T12:55:25.296Z,100883
2018-06-23T12:56:30.191Z,100874
2018-06-23T12:57:35.312Z,100886
2018-06-23T12:58:40.767Z,100883
2018-06-23T12:59:45.951Z,100874
2018-06-23T13:00:50.819Z,100874
2018-06-23T13:01:55.688Z,100872
2018-06-23T13:03:01.132Z,100874
2018-06-23T13:04:06.835Z,100880
2018-06-23T13:05:11.997Z,100863
2018-06-23T13:06:17.196Z,100863
2018-06-23T13:07:22.299Z,100866
2018-06-23T13:08:27.198Z,100860
2018-06-23T13:09:32.662Z,100863
2018-06-23T13:10:37.829Z,100857
2018-06-23T13:11:43.017Z,100857
2018-06-23T13:12:48.541Z,100854
2018-06-23T13:13:54.002Z,100851
2018-06-23T13:14:59.189Z,100857
2018-06-23T13:16:04.428Z,100860
2018-06-23T13:17:09.030Z,100860
2018-06-23T13:18:14.191Z,100866
2018-06-23T13:19:19.900Z,100857
2018-06-23T13:20:25.354Z,100860
2018-06-23T13:21:30.789Z,100848
2018-06-23T13:22:35.682Z,100851
2018-06-23T13:23:40.270Z,100846
2018-06-23T13:24:45.833Z,100851
2018-06-23T13:25:50.430Z,100848
2018-06-23T13:26:55.791Z,100851
2018-06-23T13:28:01.586Z,100851
2018-06-23T13:29:06.869Z,100857
2018-06-23T13:30:12.319Z,100844
2018-06-23T13:31:17.898Z,100848
2018-06-23T13:32:23.148Z,100845
2018-06-23T13:33:29.663Z,100845
2018-06-23T13:34:34.536Z,100844
2018-06-23T13:35:39.417Z,100835
2018-06-23T13:36:44.923Z,100832
2018-06-23T13:37:50.081Z,100835